Time;durP1;ratioP1;P1;durP2;ratioP2;P2;SDS_P1;SDS_P2;PMS_P1;PMS_P2;Temp;Humidity;BMP_temperature;BMP_pressure;BME280_temperature;BME280_humidity;BME280_pressure;Samples;Min_cycle;Max_cycle;Signal;HPM_P1;HPM_P2
2022/05/11 00:02:25;;;;;;;9.90;9.00;;;;;;;17.51;56.37;100606.28;5077510;28;20024;-31
2022/05/11 00:04:50;;;;;;;9.77;8.88;;;;;;;17.49;56.79;100600.16;5077475;28;20051;-30
2022/05/11 00:07:16;;;;;;;9.77;8.82;;;;;;;17.46;56.76;100608.28;5077968;28;20373;-31
2022/05/11 00:09:41;;;;;;;9.65;8.85;;;;;;;17.44;56.36;100599.50;5078910;28;20062;-29
2022/05/11 00:12:07;;;;;;;8.50;7.80;;;;;;;17.40;56.80;100596.06;5082343;28;20043;-29
2022/05/11 00:14:33;;;;;;;9.32;8.52;;;;;;;17.39;56.62;100601.44;5078360;28;20052;-30
2022/05/11 00:16:59;;;;;;;9.93;9.05;;;;;;;17.34;56.91;100587.44;5081881;28;20067;-30
2022/05/11 00:19:25;;;;;;;9.10;8.30;;;;;;;17.33;56.80;100593.72;5077647;28;20055;-30
2022/05/11 00:21:50;;;;;;;8.70;8.00;;;;;;;17.29;56.59;100584.94;5084351;28;20020;-29
2022/05/11 00:24:16;;;;;;;9.50;8.70;;;;;;;17.27;57.07;100587.66;5083029;28;20021;-31
2022/05/11 00:26:41;;;;;;;9.02;8.23;;;;;;;17.24;56.84;100586.94;5084403;28;20023;-29
2022/05/11 00:29:07;;;;;;;10.13;9.23;;;;;;;17.21;56.80;100584.38;5087665;28;20045;-29
2022/05/11 00:31:32;;;;;;;9.55;8.68;;;;;;;17.18;56.83;100585.38;5083578;28;20031;-29
2022/05/11 00:33:58;;;;;;;9.27;8.48;;;;;;;17.16;57.17;100584.56;5079610;28;20060;-31
2022/05/11 00:36:24;;;;;;;9.50;8.70;;;;;;;17.14;57.21;100589.09;5080646;28;20065;-30
2022/05/11 00:38:49;;;;;;;9.70;8.80;;;;;;;17.11;57.18;100591.88;5080651;28;20036;-30
2022/05/11 00:41:15;;;;;;;10.32;9.40;;;;;;;17.09;57.45;100591.03;5081307;28;20585;-30
2022/05/11 00:43:44;;;;;;;9.82;8.82;;;;;;;17.07;57.35;100593.75;5080830;28;20499;-30
2022/05/11 00:46:14;;;;;;;10.20;9.40;;;;;;;17.03;57.39;100587.66;5083124;28;20024;-29
2022/05/11 00:51:25;;;;;;;9.65;8.77;;;;;;;16.98;57.53;100586.97;5078686;28;20030;-30
2022/05/11 00:53:53;;;;;;;10.18;9.27;;;;;;;16.95;57.49;100580.88;5082817;28;20020;-30
2022/05/11 00:56:18;;;;;;;10.07;9.07;;;;;;;16.92;57.55;100592.50;5083108;28;20032;-29
2022/05/11 00:58:58;;;;;;;9.73;8.93;;;;;;;16.90;57.38;100589.03;5080278;28;20422;-29
2022/05/11 01:01:24;;;;;;;9.25;8.43;;;;;;;16.88;57.88;100596.22;5079524;28;20025;-30
2022/05/11 01:03:52;;;;;;;10.48;9.55;;;;;;;16.84;57.72;100595.44;5082352;28;20074;-30
2022/05/11 01:06:19;;;;;;;9.35;8.60;;;;;;;16.81;57.59;100600.91;5081588;28;20331;-30
2022/05/11 01:08:45;;;;;;;9.30;8.40;;;;;;;16.78;57.48;100593.88;5084227;28;20491;-31
2022/05/11 01:11:10;;;;;;;10.02;9.23;;;;;;;16.76;57.91;100593.06;5077555;28;20030;-30
2022/05/11 01:13:39;;;;;;;10.13;9.13;;;;;;;16.75;58.15;100591.34;5078945;28;20024;-31
2022/05/11 01:16:04;;;;;;;9.85;8.95;;;;;;;16.73;57.92;100589.63;5098860;28;20138;-31
2022/05/11 01:18:30;;;;;;;9.63;8.63;;;;;;;16.72;57.97;100588.78;5082917;28;20115;-31
2022/05/11 01:20:56;;;;;;;9.93;9.02;;;;;;;16.68;58.00;100589.84;5082554;28;20021;-30
2022/05/11 01:23:33;;;;;;;10.45;9.52;;;;;;;16.67;58.38;100593.41;5082279;28;20054;-29
2022/05/11 01:25:59;;;;;;;9.20;8.40;;;;;;;16.65;57.99;100581.94;5081153;28;20032;-30
2022/05/11 01:28:25;;;;;;;9.20;8.45;;;;;;;16.62;57.87;100582.94;5080702;28;20037;-29
2022/05/11 01:30:52;;;;;;;9.48;8.70;;;;;;;16.59;57.74;100587.47;5077155;28;20419;-30
2022/05/11 01:33:23;;;;;;;10.93;10.00;;;;;;;16.57;58.04;100584.03;5074106;28;20575;-30
2022/05/11 01:35:59;;;;;;;9.43;8.60;;;;;;;16.55;58.35;100582.25;5084607;28;20034;-30
2022/05/11 01:38:32;;;;;;;10.05;9.15;;;;;;;16.55;58.61;100581.41;5081995;28;20484;-29
2022/05/11 01:40:58;;;;;;;10.45;9.50;;;;;;;16.53;58.31;100591.22;5076197;28;20032;-31
2022/05/11 01:43:26;;;;;;;9.55;8.75;;;;;;;16.50;58.19;100581.56;5083331;28;20487;-29
2022/05/11 01:45:52;;;;;;;10.05;9.25;;;;;;;16.48;58.08;100587.88;5085477;28;20043;-29
2022/05/11 01:48:18;;;;;;;9.90;9.07;;;;;;;16.45;58.10;100575.56;5080260;28;20040;-29
2022/05/11 01:50:43;;;;;;;10.05;9.18;;;;;;;16.46;58.60;100582.59;5080877;28;20128;-30
2022/05/11 01:53:10;;;;;;;10.45;9.05;;;;;;;16.43;58.31;100590.69;5078729;28;20062;-30
2022/05/11 01:55:35;;;;;;;10.73;9.63;;;;;;;16.40;58.47;100590.78;5080222;28;20039;-30
2022/05/11 01:58:00;;;;;;;9.80;8.95;;;;;;;16.37;57.76;100586.44;5074781;28;20036;-28
2022/05/11 02:00:26;;;;;;;9.10;8.30;;;;;;;16.36;57.90;100582.06;5080244;28;20065;-30
2022/05/11 02:02:52;;;;;;;9.85;8.95;;;;;;;16.37;58.28;100590.91;5077452;28;20024;-29
2022/05/11 02:08:02;;;;;;;10.20;9.30;;;;;;;16.33;57.97;100583.94;5077212;28;20043;-30
2022/05/11 02:10:27;;;;;;;9.93;9.07;;;;;;;16.32;58.13;100584.88;5075887;28;20020;-29
2022/05/11 02:12:53;;;;;;;9.45;8.65;;;;;;;16.30;58.19;100579.59;5073537;28;21167;-31
2022/05/11 02:15:19;;;;;;;10.73;9.75;;;;;;;16.28;58.08;100582.31;5082661;28;20173;-30
2022/05/11 02:17:45;;;;;;;9.88;9.05;;;;;;;16.27;58.29;100580.56;5081311;28;20092;-30
2022/05/11 02:20:12;;;;;;;9.40;8.40;;;;;;;16.27;58.28;100583.25;5075958;28;20027;-30
2022/05/11 02:22:38;;;;;;;10.23;9.23;;;;;;;16.26;58.67;100584.16;5079754;28;20174;-29
2022/05/11 02:25:04;;;;;;;9.68;8.90;;;;;;;16.23;58.31;100573.63;5078025;28;20103;-30
2022/05/11 02:27:31;;;;;;;10.35;9.45;;;;;;;16.21;58.21;100583.44;5083478;28;20342;-30
2022/05/11 02:29:57;;;;;;;10.32;9.43;;;;;;;16.20;58.31;100583.53;5078530;28;20027;-30
2022/05/11 02:32:23;;;;;;;10.15;9.35;;;;;;;16.20;58.48;100580.84;5083173;28;20400;-30
2022/05/11 02:37:32;;;;;;;10.10;9.20;;;;;;;16.17;58.83;100581.81;5079264;28;20030;-30
2022/05/11 02:39:57;;;;;;;10.15;9.25;;;;;;;16.14;58.55;100579.28;5076130;28;20028;-30
2022/05/11 02:42:23;;;;;;;9.98;9.13;;;;;;;16.13;58.30;100580.19;5081096;28;20036;-30
2022/05/11 02:44:48;;;;;;;10.40;9.50;;;;;;;16.12;59.36;100574.00;5082995;28;20055;-30
2022/05/11 02:47:14;;;;;;;10.65;9.75;;;;;;;16.10;58.89;100580.28;5081773;28;20379;-29
2022/05/11 02:49:39;;;;;;;10.35;9.45;;;;;;;16.09;58.62;100570.56;5084304;28;20061;-30
2022/05/11 02:52:05;;;;;;;10.32;9.20;;;;;;;16.09;58.94;100565.25;5078035;28;20043;-28
2022/05/11 02:54:30;;;;;;;10.32;9.43;;;;;;;16.08;58.70;100574.16;5078937;28;20107;-29
2022/05/11 02:56:55;;;;;;;10.25;9.30;;;;;;;16.06;58.46;100570.66;5084598;28;20384;-29
2022/05/11 02:59:21;;;;;;;9.52;8.73;;;;;;;16.05;58.34;100579.56;5082347;28;20051;-30
2022/05/11 03:01:46;;;;;;;11.63;9.90;;;;;;;16.03;58.67;100580.50;5080437;28;20031;-29
2022/05/11 03:04:11;;;;;;;11.25;10.25;;;;;;;16.03;58.81;100584.94;5074729;28;20472;-29
2022/05/11 03:06:38;;;;;;;11.45;10.38;;;;;;;15.99;58.61;100573.53;5081769;28;20055;-30
2022/05/11 03:09:03;;;;;;;10.73;9.82;;;;;;;16.00;59.05;100569.06;5077870;28;20024;-30
2022/05/11 03:11:28;;;;;;;10.45;9.55;;;;;;;15.99;59.37;100578.88;5079185;28;20039;-30
2022/05/11 03:13:54;;;;;;;11.00;9.88;;;;;;;15.98;59.23;100579.78;5082926;28;20016;-30
2022/05/11 03:16:19;;;;;;;11.27;10.15;;;;;;;15.98;59.70;100578.91;5078205;28;20016;-30
2022/05/11 03:18:44;;;;;;;11.65;10.55;;;;;;;15.95;59.36;100574.56;5083109;28;20081;-30
2022/05/11 03:21:10;;;;;;;10.75;9.63;;;;;;;15.95;59.39;100574.56;5082728;28;20490;-28
2022/05/11 03:23:35;;;;;;;10.65;9.68;;;;;;;15.92;59.22;100579.97;5084922;28;20458;-29
2022/05/11 03:26:00;;;;;;;10.15;9.35;;;;;;;15.93;59.08;100570.19;5084081;28;20024;-30
2022/05/11 03:28:26;;;;;;;10.95;10.05;;;;;;;15.91;59.13;100572.91;5078172;28;20024;-30
2022/05/11 03:30:51;;;;;;;10.73;9.65;;;;;;;15.90;59.08;100577.34;5076686;28;20499;-29
2022/05/11 03:36:01;;;;;;;11.32;10.25;;;;;;;15.86;59.37;100574.81;5083481;28;20082;-30
2022/05/11 03:38:26;;;;;;;12.88;11.38;;;;;;;15.87;59.32;100577.44;5080917;28;20059;-29
2022/05/11 03:40:51;;;;;;;11.18;10.07;;;;;;;15.84;58.92;100582.00;5081656;28;20294;-29
2022/05/11 03:43:16;;;;;;;10.73;9.77;;;;;;;15.84;59.29;100572.22;5080963;28;20028;-29
2022/05/11 03:45:42;;;;;;;12.18;10.98;;;;;;;15.83;59.22;100580.25;5078804;28;20446;-31
2022/05/11 03:48:07;;;;;;;10.23;9.32;;;;;;;15.82;59.44;100573.19;5079562;28;20480;-30
2022/05/11 03:50:33;;;;;;;11.60;10.40;;;;;;;15.80;59.37;100572.38;5085410;28;20032;-30
2022/05/11 03:52:58;;;;;;;11.60;10.55;;;;;;;15.78;59.31;100575.09;5078680;28;20040;-29
2022/05/11 03:55:25;;;;;;;11.18;10.20;;;;;;;15.77;59.43;100571.56;5080561;28;20039;-30
2022/05/11 03:57:51;;;;;;;10.73;9.68;;;;;;;15.75;59.39;100572.53;5078668;28;20032;-30
2022/05/11 04:00:20;;;;;;;11.63;10.13;;;;;;;15.74;59.46;100576.97;5081593;28;20082;-29
2022/05/11 04:02:45;;;;;;;11.85;10.77;;;;;;;15.75;59.38;100580.50;5080713;28;20070;-30
2022/05/11 04:05:13;;;;;;;10.50;9.60;;;;;;;15.74;59.52;100576.97;5083818;28;20024;-28
2022/05/11 04:07:38;;;;;;;11.82;10.63;;;;;;;15.71;59.06;100574.41;5083931;28;20032;-28
2022/05/11 04:10:04;;;;;;;11.50;10.50;;;;;;;15.71;59.26;100569.09;5079010;28;20115;-29
2022/05/11 04:12:30;;;;;;;11.60;10.32;;;;;;;15.70;59.63;100567.34;5080205;28;20043;-30
2022/05/11 04:14:56;;;;;;;10.95;9.95;;;;;;;15.72;59.51;100562.00;5080063;28;20040;-30
2022/05/11 04:17:21;;;;;;;10.60;9.68;;;;;;;15.72;59.53;100568.19;5079272;28;20085;-29
2022/05/11 04:19:47;;;;;;;11.95;10.75;;;;;;;15.69;59.71;100559.41;5080760;28;20016;-31
2022/05/11 04:22:12;;;;;;;10.50;9.48;;;;;;;15.70;59.63;100567.34;5081132;28;20026;-29
2022/05/11 04:24:37;;;;;;;10.65;9.70;;;;;;;15.70;59.57;100563.84;5083209;28;20111;-30
2022/05/11 04:27:03;;;;;;;10.90;9.90;;;;;;;15.70;60.00;100561.19;5079036;28;20106;-30
2022/05/11 04:29:28;;;;;;;10.93;9.82;;;;;;;15.69;59.52;100560.31;5081207;28;20034;-31
2022/05/11 04:31:55;;;;;;;10.82;9.93;;;;;;;15.68;59.57;100566.53;5078194;28;20035;-30
2022/05/11 04:34:20;;;;;;;10.85;9.80;;;;;;;15.68;59.85;100563.88;5082784;28;20036;-29
2022/05/11 04:36:46;;;;;;;10.98;9.88;;;;;;;15.68;59.61;100566.53;5080962;28;20020;-31
2022/05/11 04:39:11;;;;;;;11.18;10.18;;;;;;;15.69;60.28;100572.72;5080709;28;20466;-31
2022/05/11 04:41:37;;;;;;;10.30;9.40;;;;;;;15.69;60.37;100573.59;5075699;28;20040;-28
2022/05/11 04:44:02;;;;;;;9.80;8.90;;;;;;;15.68;60.39;100569.22;5076340;28;20020;-30
2022/05/11 04:46:27;;;;;;;10.50;9.50;;;;;;;15.69;59.64;100572.72;5076083;28;20311;-31
2022/05/11 04:49:16;;;;;;;11.27;9.68;;;;;;;15.69;60.40;100562.97;5080364;28;20036;-30
2022/05/11 04:51:38;;;;;;;10.95;10.05;;;;;;;15.70;60.75;100564.69;5073583;28;20036;-28
2022/05/11 04:54:04;;;;;;;10.70;9.70;;;;;;;15.71;61.07;100565.56;5080606;28;20021;-30
2022/05/11 04:56:31;;;;;;;10.95;9.85;;;;;;;15.72;61.85;100568.19;5084108;28;20032;-31
2022/05/11 04:58:57;;;;;;;11.45;10.45;;;;;;;15.72;61.58;100570.84;5080738;28;20027;-30
2022/05/11 05:01:24;;;;;;;11.82;10.73;;;;;;;15.73;62.23;100569.03;5082804;28;20020;-29
2022/05/11 05:03:50;;;;;;;10.93;9.93;;;;;;;15.73;60.84;100569.03;5084168;28;20051;-30
2022/05/11 05:06:15;;;;;;;12.70;11.40;;;;;;;15.75;63.43;100569.88;5080746;28;20063;-29
2022/05/11 05:08:40;;;;;;;11.07;10.07;;;;;;;15.76;62.77;100568.94;5084292;28;20024;-28
2022/05/11 05:11:07;;;;;;;10.40;9.38;;;;;;;15.75;60.96;100568.09;5084814;28;20504;-30
2022/05/11 05:13:32;;;;;;;11.02;9.90;;;;;;;15.76;60.18;100580.47;5083076;28;20024;-30
2022/05/11 05:15:58;;;;;;;11.45;9.20;;;;;;;15.76;59.68;100574.25;5085398;28;20037;-30
2022/05/11 05:18:24;;;;;;;10.75;9.75;;;;;;;15.80;59.82;100567.06;5083434;28;20028;-31
2022/05/11 05:20:49;;;;;;;11.75;10.55;;;;;;;15.80;59.65;100565.25;5082158;28;20031;-30
2022/05/11 05:23:14;;;;;;;9.75;8.85;;;;;;;15.83;59.92;100572.25;5080009;28;20391;-29
2022/05/11 05:25:40;;;;;;;9.77;8.88;;;;;;;15.85;59.37;100567.78;5083133;28;20075;-29
2022/05/11 05:31:08;;;;;;;9.85;8.98;;;;;;;15.91;59.09;100578.22;5080457;28;20187;-30
2022/05/11 05:33:34;;;;;;;10.38;9.48;;;;;;;15.94;58.90;100575.44;5075985;28;20127;-31
2022/05/11 05:36:01;;;;;;;10.30;9.40;;;;;;;15.98;58.77;100574.47;5064932;28;20032;-31
2022/05/11 05:38:27;;;;;;;9.35;8.55;;;;;;;16.01;58.85;100566.38;5083883;28;20047;-31
2022/05/11 05:40:53;;;;;;;10.00;9.10;;;;;;;16.05;58.76;100564.50;5086731;28;20028;-31
2022/05/11 05:43:19;;;;;;;9.98;9.07;;;;;;;16.09;58.69;100570.56;5083434;28;20115;-30
2022/05/11 05:45:51;;;;;;;10.85;9.75;;;;;;;16.12;58.77;100566.03;5082172;28;20087;-30
2022/05/11 05:48:18;;;;;;;9.75;8.85;;;;;;;16.16;58.65;100567.66;5079271;28;20016;-29
2022/05/11 05:50:43;;;;;;;10.02;9.13;;;;;;;16.19;58.61;100561.34;5077914;28;20103;-30
2022/05/11 05:53:09;;;;;;;10.48;9.38;;;;;;;16.25;58.87;100554.94;5079982;28;20104;-31
2022/05/11 05:55:34;;;;;;;10.70;9.70;;;;;;;16.27;58.97;100551.31;5080076;28;20430;-30
2022/05/11 05:57:59;;;;;;;10.95;9.95;;;;;;;16.33;59.21;100558.22;5080974;28;20032;-28
2022/05/11 06:00:26;;;;;;;10.90;10.00;;;;;;;16.37;59.17;100548.34;5085924;28;20413;-29
2022/05/11 06:02:51;;;;;;;10.98;10.05;;;;;;;16.41;59.40;100550.81;5083214;28;20012;-30
2022/05/11 06:05:16;;;;;;;11.23;10.07;;;;;;;16.47;59.04;100554.19;5084146;28;20031;-28
2022/05/11 06:07:42;;;;;;;11.05;10.00;;;;;;;16.52;59.20;100554.91;5083995;28;20056;-31
2022/05/11 06:10:07;;;;;;;12.00;10.02;;;;;;;16.57;59.42;100546.75;5086738;28;20042;-30
2022/05/11 06:12:32;;;;;;;12.13;11.02;;;;;;;16.62;59.36;100552.75;5082344;28;20055;-30
2022/05/11 06:14:58;;;;;;;12.10;10.90;;;;;;;16.67;59.47;100553.44;5080237;28;20032;-30
2022/05/11 06:17:23;;;;;;;12.35;11.23;;;;;;;16.74;60.11;100556.78;5081719;28;20032;-30
2022/05/11 06:19:50;;;;;;;12.20;10.80;;;;;;;16.80;60.09;100549.44;5081284;28;20059;-31
2022/05/11 06:22:16;;;;;;;12.68;11.48;;;;;;;16.88;59.38;100548.28;5080865;28;20035;-30
2022/05/11 06:24:41;;;;;;;12.50;11.30;;;;;;;16.96;60.11;100547.97;5085478;28;20024;-29
2022/05/11 06:27:08;;;;;;;13.35;11.45;;;;;;;17.07;60.49;100547.63;5078773;28;21101;-29
2022/05/11 06:29:34;;;;;;;14.23;11.65;;;;;;;17.15;60.17;100549.06;5081711;28;20074;-30
2022/05/11 06:31:59;;;;;;;12.77;11.32;;;;;;;17.23;59.84;100543.41;5085291;28;20028;-30
2022/05/11 06:34:25;;;;;;;13.05;11.85;;;;;;;17.31;59.51;100543.97;5100927;28;20027;-30
2022/05/11 06:36:51;;;;;;;12.82;11.60;;;;;;;17.40;59.38;100545.41;5086315;28;20020;-30
2022/05/11 06:39:16;;;;;;;12.50;10.95;;;;;;;17.48;59.74;100547.78;5080305;28;20403;-29
2022/05/11 06:41:42;;;;;;;13.40;12.10;;;;;;;17.59;59.60;100538.47;5084575;28;20012;-30
2022/05/11 06:44:08;;;;;;;12.45;11.15;;;;;;;17.68;60.33;100544.28;5082839;28;20468;-30
2022/05/11 06:46:34;;;;;;;12.13;11.00;;;;;;;17.79;60.58;100546.53;5082306;28;20030;-30
2022/05/11 06:48:59;;;;;;;12.50;11.13;;;;;;;17.88;60.30;100534.63;5081797;28;20491;-30
2022/05/11 06:51:25;;;;;;;12.48;11.38;;;;;;;18.01;61.33;100539.41;5084506;28;20101;-30
2022/05/11 06:59:21;;;;;;;11.35;10.35;;;;;;;18.37;61.05;100525.44;5082574;28;20039;-30
2022/05/11 07:01:59;;;;;;;11.95;10.85;;;;;;;18.52;61.84;100523.00;5083982;28;20257;-28
2022/05/11 07:04:26;;;;;;;11.55;10.43;;;;;;;18.65;61.93;100512.66;5086227;28;20024;-30
2022/05/11 07:06:52;;;;;;;11.45;10.35;;;;;;;18.77;61.94;100522.75;5083637;28;20028;-30
2022/05/11 07:09:19;;;;;;;10.98;9.95;;;;;;;18.91;61.49;100518.59;5082114;28;20052;-30
2022/05/11 07:14:29;;;;;;;9.25;8.48;;;;;;;19.17;61.52;100503.16;5080276;28;20518;-30
2022/05/11 07:16:54;;;;;;;9.48;8.68;;;;;;;19.29;61.61;100496.34;5082750;28;20024;-30
2022/05/11 07:19:23;;;;;;;9.57;8.77;;;;;;;19.43;61.79;100501.00;5085861;28;20070;-30
2022/05/11 07:21:48;;;;;;;10.05;9.13;;;;;;;19.58;62.04;100497.56;5082435;28;20107;-30
2022/05/11 07:24:13;;;;;;;9.30;8.48;;;;;;;19.71;61.98;100497.81;5084057;28;20475;-29
2022/05/11 07:26:39;;;;;;;8.88;8.00;;;;;;;19.86;61.77;100495.31;5083200;28;20024;-30
2022/05/11 07:29:04;;;;;;;10.60;8.40;;;;;;;20.02;61.99;100494.56;5079993;28;20090;-30
2022/05/11 07:31:30;;;;;;;9.75;8.77;;;;;;;20.16;62.55;100496.50;5082892;28;20089;-29
2022/05/11 07:33:55;;;;;;;9.45;8.48;;;;;;;20.27;62.11;100488.78;5082308;28;20400;-30
2022/05/11 07:36:21;;;;;;;8.90;8.07;;;;;;;20.43;62.02;100490.63;5079968;28;20044;-30
2022/05/11 07:38:46;;;;;;;8.82;7.90;;;;;;;20.54;61.58;100490.94;5081700;28;20027;-29
2022/05/11 07:41:11;;;;;;;8.70;7.90;;;;;;;20.66;60.77;100492.09;5082587;28;20050;-31
2022/05/11 07:43:38;;;;;;;9.05;7.57;;;;;;;20.77;60.64;100496.84;5084078;28;20020;-31
2022/05/11 07:46:03;;;;;;;8.57;7.88;;;;;;;20.92;60.23;100494.31;5081435;28;20033;-29
2022/05/11 07:48:28;;;;;;;8.15;7.32;;;;;;;21.02;59.43;100485.69;5082339;28;20028;-31
2022/05/11 07:50:54;;;;;;;7.97;7.28;;;;;;;21.18;59.80;100478.56;5064700;28;20086;-31
2022/05/11 07:53:19;;;;;;;8.02;7.22;;;;;;;21.30;59.79;100480.53;5081108;28;20023;-31
2022/05/11 07:55:45;;;;;;;8.00;7.30;;;;;;;21.43;59.63;100482.50;5079278;28;20055;-31
2022/05/11 08:00:56;;;;;;;7.75;7.05;;;;;;;21.66;57.60;100482.03;5084259;28;20039;-30
2022/05/11 08:03:21;;;;;;;11.90;6.97;;;;;;;21.81;57.90;100475.88;5085312;28;20464;-30
2022/05/11 08:05:46;;;;;;;8.05;7.03;;;;;;;21.90;57.60;100459.22;5080060;28;20380;-31
2022/05/11 08:08:12;;;;;;;7.32;6.63;;;;;;;22.03;58.47;100467.38;5098118;28;20016;-31
2022/05/11 08:10:40;;;;;;;7.55;6.93;;;;;;;22.15;57.51;100465.78;5080225;28;20024;-30
2022/05/11 08:13:07;;;;;;;7.32;6.68;;;;;;;22.26;56.39;100462.44;5076668;28;20562;-30
2022/05/11 08:15:34;;;;;;;6.75;6.15;;;;;;;22.37;55.87;100468.00;5078124;28;20119;-31
2022/05/11 08:18:00;;;;;;;7.43;6.72;;;;;;;22.48;56.33;100456.59;5082840;28;20031;-30
2022/05/11 08:20:28;;;;;;;6.80;6.28;;;;;;;22.61;56.57;100470.13;5082378;28;20016;-30
2022/05/11 08:22:55;;;;;;;7.30;6.70;;;;;;;22.74;56.03;100464.00;5079616;28;20028;-31
2022/05/11 08:25:25;;;;;;;6.97;6.38;;;;;;;22.86;55.44;100460.50;5082101;28;20441;-30
2022/05/11 08:27:51;;;;;;;7.10;6.57;;;;;;;22.97;55.11;100458.94;5078073;28;20531;-33
2022/05/11 08:35:49;;;;;;;6.82;6.22;;;;;;;23.36;55.74;100446.53;5086617;28;20027;-30
2022/05/11 08:38:14;;;;;;;6.88;6.05;;;;;;;23.47;54.74;100450.34;5083643;28;20049;-30
2022/05/11 08:40:46;;;;;;;6.28;5.80;;;;;;;23.60;54.69;100440.47;5088667;28;20050;-30
2022/05/11 08:43:14;;;;;;;7.47;6.60;;;;;;;23.71;54.93;100437.91;5089602;28;20475;-30
2022/05/11 08:45:44;;;;;;;6.68;6.10;;;;;;;23.82;54.21;100444.38;5083322;28;20471;-30
2022/05/11 08:48:15;;;;;;;7.65;6.20;;;;;;;23.91;53.77;100435.66;5088620;28;20777;-30
2022/05/11 08:50:42;;;;;;;6.13;5.57;;;;;;;24.02;53.34;100436.75;5080957;28;20032;-29
2022/05/11 08:53:23;;;;;;;6.25;5.65;;;;;;;24.16;54.54;100442.06;5081743;28;20024;-31
2022/05/11 08:55:50;;;;;;;6.93;6.22;;;;;;;24.27;53.26;100437.75;5083715;28;20067;-30
2022/05/11 08:58:28;;;;;;;6.68;6.10;;;;;;;24.34;52.52;100445.28;5083575;28;21035;-30
2022/05/11 09:00:56;;;;;;;6.05;5.55;;;;;;;24.43;51.95;100442.88;5085601;28;20035;-30
2022/05/11 09:03:32;;;;;;;5.50;5.00;;;;;;;24.52;51.38;100441.38;5099712;28;20086;-29
2022/05/11 09:06:03;;;;;;;6.10;5.40;;;;;;;24.61;51.32;100427.25;5085862;28;20031;-30
2022/05/11 09:08:32;;;;;;;6.88;6.20;;;;;;;24.66;51.67;100433.16;5086989;28;20495;-29
2022/05/11 09:10:58;;;;;;;6.22;5.38;;;;;;;24.71;51.34;100430.13;5083782;28;20110;-29
2022/05/11 09:13:26;;;;;;;5.63;5.13;;;;;;;24.73;51.25;100429.03;5086027;28;20035;-30
2022/05/11 09:15:53;;;;;;;6.28;5.68;;;;;;;24.77;50.31;100428.81;5084487;28;20024;-30
2022/05/11 09:18:39;;;;;;;8.75;6.03;;;;;;;24.81;50.28;100422.22;5083602;28;20027;-30
2022/05/11 09:21:32;;;;;;;9.43;5.60;;;;;;;24.86;50.40;100417.38;5084769;28;20088;-31
2022/05/11 09:23:57;;;;;;;8.68;5.65;;;;;;;24.88;50.54;100417.25;5082796;28;20479;-31
2022/05/11 09:26:33;;;;;;;8.93;5.37;;;;;;;24.90;50.70;100413.47;5083474;28;20038;-31
2022/05/11 09:29:23;;;;;;;7.47;5.20;;;;;;;24.92;50.30;100411.53;5081823;28;20495;-30
2022/05/11 09:31:50;;;;;;;5.95;5.13;;;;;;;24.92;50.07;100411.53;5080822;28;20460;-31
2022/05/11 09:34:33;;;;;;;6.20;4.85;;;;;;;24.92;49.45;100416.06;5082131;28;20031;-30
2022/05/11 09:37:07;;;;;;;8.80;4.85;;;;;;;24.95;49.09;100395.13;5081888;28;20028;-30
2022/05/11 09:39:34;;;;;;;6.10;5.47;;;;;;;24.98;49.65;100399.44;5082950;28;20032;-30
2022/05/11 09:42:15;;;;;;;8.77;4.78;;;;;;;25.04;49.42;100403.50;5079065;28;20432;-30
2022/05/11 09:44:43;;;;;;;7.85;5.97;;;;;;;25.09;49.63;100406.72;5086316;28;20028;-30
2022/05/11 09:48:02;;;;;;;8.00;5.07;;;;;;;25.14;49.70;100399.13;5081215;28;20021;-29
2022/05/11 09:50:26;;;;;;;8.23;5.43;;;;;;;25.18;49.70;100395.19;5063357;28;20349;-29
2022/05/11 09:52:57;;;;;;;11.85;5.57;;;;;;;25.22;49.19;100396.72;5083935;28;20499;-31
2022/05/11 09:55:28;;;;;;;9.48;5.70;;;;;;;25.29;49.32;100396.22;5082710;28;20028;-31
2022/05/11 09:57:57;;;;;;;5.85;5.25;;;;;;;25.36;49.54;100390.28;5086718;28;20027;-31
2022/05/11 10:00:31;;;;;;;7.30;5.93;;;;;;;25.42;49.03;100388.94;5104059;28;20035;-30
2022/05/11 10:02:57;;;;;;;9.25;5.60;;;;;;;25.45;48.40;100379.75;5081223;28;20016;-30
2022/05/11 10:05:26;;;;;;;5.82;5.18;;;;;;;25.50;47.87;100378.41;5085175;28;20370;-30
2022/05/11 10:08:29;;;;;;;7.45;5.03;;;;;;;25.53;47.58;100398.91;5083527;28;20032;-31
2022/05/11 10:11:00;;;;;;;6.43;5.32;;;;;;;25.57;46.52;100381.47;5059236;28;20032;-30
2022/05/11 10:13:33;;;;;;;7.18;5.18;;;;;;;25.61;46.45;100387.56;5058160;28;20032;-30
2022/05/11 10:22:04;;;;;;;8.80;5.53;;;;;;;25.82;46.49;100365.22;5085656;28;20144;-30
2022/05/11 10:24:45;;;;;;;12.00;5.60;;;;;;;25.90;46.59;100364.63;5084751;28;20035;-31
2022/05/11 10:27:27;;;;;;;7.25;5.57;;;;;;;25.98;46.93;100368.44;5084193;28;20069;-31
2022/05/11 10:30:02;;;;;;;6.03;4.80;;;;;;;26.05;46.23;100354.44;5083068;28;20023;-28
2022/05/11 10:32:42;;;;;;;10.02;4.97;;;;;;;26.13;46.07;100357.38;5083256;28;20059;-30
2022/05/11 10:35:16;;;;;;;7.22;5.65;;;;;;;26.20;45.96;100353.19;5082893;28;20048;-31
2022/05/11 10:38:06;;;;;;;14.20;5.63;;;;;;;26.29;45.19;100345.38;5083006;28;20375;-30
2022/05/11 10:41:09;;;;;;;11.10;5.20;;;;;;;26.33;45.08;100346.81;5084547;28;20024;-31
2022/05/11 10:43:50;;;;;;;6.97;5.65;;;;;;;26.38;44.58;100339.22;5080729;28;20060;-30
2022/05/11 10:46:26;;;;;;;;;;;;;;;26.43;44.21;100337.00;5084164;28;20040;-31
2022/05/11 10:49:10;;;;;;;6.00;5.25;;;;;;;26.47;43.68;100345.72;5085696;28;19959;-30
2022/05/11 10:51:51;;;;;;;6.07;5.32;;;;;;;26.48;43.99;100342.88;5083207;28;21231;-30
2022/05/11 10:54:21;;;;;;;9.27;4.97;;;;;;;26.52;43.84;100338.94;5080446;28;20388;-31
2022/05/11 10:56:55;;;;;;;6.18;4.95;;;;;;;26.59;43.85;100339.28;5065269;28;20020;-30
2022/05/11 10:59:43;;;;;;;7.53;5.18;;;;;;;26.60;43.72;100338.31;5068917;28;20394;-31
2022/05/11 11:02:27;;;;;;;8.32;6.50;;;;;;;26.63;43.76;100331.78;5080570;28;20025;-30
2022/05/11 11:05:22;;;;;;;6.97;5.05;;;;;;;26.68;43.62;100334.97;5081599;28;20020;-30
2022/05/11 11:07:54;;;;;;;9.25;5.60;;;;;;;26.67;43.64;100338.66;5080260;28;20020;-30
2022/05/11 11:10:33;;;;;;;5.15;4.68;;;;;;;26.71;43.70;100331.16;5079993;28;20024;-29
2022/05/11 11:13:22;;;;;;;8.90;5.47;;;;;;;26.74;42.94;100326.34;5081814;28;20020;-31
2022/05/11 11:15:47;;;;;;;7.63;5.32;;;;;;;26.76;42.86;100346.00;5081454;28;20615;-31
2022/05/11 11:18:15;;;;;;;8.23;5.43;;;;;;;26.73;41.39;100323.75;5080642;28;20107;-30
2022/05/11 11:20:45;;;;;;;10.32;4.95;;;;;;;26.76;41.62;100309.97;5100628;28;20390;-29
2022/05/11 11:23:16;;;;;;;8.18;5.10;;;;;;;26.83;42.35;100304.91;5078470;28;20506;-32
2022/05/11 11:25:46;;;;;;;7.63;4.47;;;;;;;26.85;42.20;100313.75;5081934;28;20396;-31
2022/05/11 11:28:15;;;;;;;9.43;4.60;;;;;;;26.89;42.05;100304.41;5083409;28;20077;-30
2022/05/11 11:31:01;;;;;;;7.68;5.25;;;;;;;26.92;42.13;100305.97;5084731;28;20497;-31
2022/05/11 11:33:28;;;;;;;5.13;4.63;;;;;;;26.94;41.80;100307.56;5071953;28;20047;-30
2022/05/11 11:36:01;;;;;;;6.18;4.72;;;;;;;26.97;42.15;100303.78;5082161;28;20238;-31
2022/05/11 11:38:39;;;;;;;7.93;5.05;;;;;;;26.98;41.64;100290.09;5082353;28;20020;-31
2022/05/11 11:41:16;;;;;;;9.57;4.45;;;;;;;27.05;41.63;100289.59;5082674;28;20035;-30
2022/05/11 11:44:05;;;;;;;5.30;4.30;;;;;;;27.10;41.20;100300.88;5083391;28;20020;-29
2022/05/11 11:46:44;;;;;;;8.73;4.65;;;;;;;27.14;40.74;100300.50;5078916;28;20523;-31
2022/05/11 11:49:18;;;;;;;7.80;4.70;;;;;;;27.20;40.51;100299.09;5082451;28;20040;-30
2022/05/11 11:52:02;;;;;;;8.32;5.13;;;;;;;27.23;41.31;100290.72;5080985;28;20025;-31
2022/05/11 11:54:36;;;;;;;6.25;4.63;;;;;;;27.24;40.20;100286.19;5084680;28;20020;-30
2022/05/11 11:57:21;;;;;;;6.25;5.00;;;;;;;27.24;39.81;100276.19;5080368;28;20052;-30
2022/05/11 11:59:58;;;;;;;9.30;4.63;;;;;;;27.32;40.00;100263.84;5084809;28;20089;-30
2022/05/11 12:02:28;;;;;;;7.90;4.68;;;;;;;27.32;39.31;100271.97;5081646;28;20016;-31
2022/05/11 12:05:05;;;;;;;6.13;4.72;;;;;;;27.41;39.35;100279.31;5080737;28;20083;-30